createdAt,value
2024-03-24T00:02:33.977Z,13.43
2024-03-24T00:07:42.820Z,14.60
2024-03-24T00:12:55.602Z,15.18
2024-03-24T00:18:01.539Z,15.45
2024-03-24T00:23:16.819Z,14.70
2024-03-24T00:28:28.389Z,15.13
2024-03-24T00:33:38.399Z,15.13
2024-03-24T00:38:43.485Z,14.45
2024-03-24T00:43:55.837Z,14.75
2024-03-24T00:49:10.736Z,17.17
2024-03-24T00:54:23.170Z,14.80
2024-03-24T00:59:32.257Z,13.55
2024-03-24T01:04:42.088Z,15.73
2024-03-24T01:09:55.693Z,15.70
2024-03-24T01:15:04.120Z,14.95
2024-03-24T01:20:16.123Z,13.45
2024-03-24T01:25:28.323Z,14.98
2024-03-24T01:30:41.220Z,12.48
2024-03-24T01:35:50.327Z,14.95
2024-03-24T01:40:59.814Z,15.25
2024-03-24T01:46:07.902Z,14.00
2024-03-24T01:51:14.261Z,14.20
2024-03-24T01:56:21.975Z,13.82
2024-03-24T02:01:29.416Z,13.75
2024-03-24T02:06:34.899Z,14.35
2024-03-24T02:11:40.434Z,15.18
2024-03-24T02:16:53.636Z,14.07
2024-03-24T02:22:04.974Z,14.40
2024-03-24T02:32:33.493Z,13.60
2024-03-24T02:37:43.075Z,15.90
2024-03-24T02:42:52.123Z,14.80
2024-03-24T02:47:58.047Z,14.93
2024-03-24T02:53:07.947Z,14.02
2024-03-24T02:58:23.717Z,15.52
2024-03-24T03:03:28.797Z,14.23
2024-03-24T03:08:33.791Z,14.85
2024-03-24T03:13:50.234Z,15.32
2024-03-24T03:19:01.687Z,17.23
2024-03-24T03:24:06.994Z,15.07
2024-03-24T03:29:20.507Z,16.35
2024-03-24T03:34:34.138Z,18.50
2024-03-24T03:39:38.703Z,22.05
2024-03-24T03:44:50.572Z,21.77
2024-03-24T03:50:03.920Z,25.05
2024-03-24T03:55:13.126Z,30.90
2024-03-24T04:00:22.554Z,31.67
2024-03-24T04:05:33.439Z,35.40
2024-03-24T04:10:40.778Z,30.95
2024-03-24T04:21:05.570Z,23.20
2024-03-24T04:26:12.601Z,22.90
2024-03-24T04:31:24.785Z,18.80
2024-03-24T04:36:31.960Z,16.83
2024-03-24T04:41:45.172Z,16.70
2024-03-24T04:46:53.191Z,16.08
2024-03-24T04:52:08.107Z,17.35
2024-03-24T04:57:14.713Z,14.68
2024-03-24T05:02:23.074Z,17.05
2024-03-24T05:07:39.883Z,14.98
2024-03-24T05:12:54.465Z,14.82
2024-03-24T05:23:19.346Z,14.85
2024-03-24T05:28:35.459Z,15.27
2024-03-24T05:33:53.918Z,14.38
2024-03-24T05:39:08.585Z,13.95
2024-03-24T05:44:14.577Z,14.25
2024-03-24T05:49:21.375Z,13.73
2024-03-24T05:54:32.737Z,13.45
2024-03-24T05:59:40.364Z,12.45
2024-03-24T06:04:51.868Z,13.80
2024-03-24T06:10:02.948Z,12.40
2024-03-24T06:15:09.950Z,14.07
2024-03-24T06:20:22.868Z,10.77
2024-03-24T06:25:42.372Z,11.05
2024-03-24T06:30:53.966Z,15.45
2024-03-24T06:36:05.150Z,15.13
2024-03-24T06:41:16.633Z,15.30
2024-03-24T06:46:24.183Z,18.05
2024-03-24T06:51:35.148Z,14.90
2024-03-24T06:56:40.278Z,15.40
2024-03-24T07:01:46.107Z,14.73
2024-03-24T07:12:10.182Z,11.90
2024-03-24T07:17:26.020Z,14.65
2024-03-24T07:22:39.731Z,18.67
2024-03-24T07:27:48.857Z,19.95
2024-03-24T07:32:53.788Z,16.13
2024-03-24T07:38:02.503Z,18.67
2024-03-24T07:43:12.430Z,20.92
2024-03-24T07:48:18.515Z,15.82
2024-03-24T07:53:25.827Z,13.98
2024-03-24T07:58:30.863Z,12.93
2024-03-24T08:03:46.180Z,18.30
2024-03-24T08:08:58.189Z,12.27
2024-03-24T08:14:03.353Z,13.18
2024-03-24T08:19:10.818Z,13.48
2024-03-24T08:24:18.963Z,13.85
2024-03-24T08:29:29.475Z,14.52
2024-03-24T08:34:41.808Z,17.83
2024-03-24T08:39:52.119Z,15.07
2024-03-24T08:44:56.653Z,17.80
2024-03-24T08:50:03.244Z,18.23
2024-03-24T08:55:14.743Z,18.27
2024-03-24T09:00:21.608Z,18.02
2024-03-24T09:05:27.790Z,17.15
2024-03-24T09:10:35.309Z,19.80
2024-03-24T09:15:45.153Z,16.95
2024-03-24T09:20:50.028Z,21.48
2024-03-24T09:25:58.808Z,19.10
2024-03-24T09:31:04.603Z,21.35
2024-03-24T09:36:13.282Z,19.75
2024-03-24T09:41:42.721Z,23.00
2024-03-24T09:47:00.448Z,21.85
2024-03-24T09:52:08.272Z,20.92
2024-03-24T09:57:21.327Z,19.92
2024-03-24T10:02:27.622Z,18.90
2024-03-24T10:07:38.529Z,19.52
2024-03-24T10:12:55.772Z,17.15
2024-03-24T10:18:07.792Z,19.08
2024-03-24T10:23:18.029Z,21.08
2024-03-24T10:28:29.755Z,18.42
2024-03-24T10:33:46.772Z,21.13
2024-03-24T10:38:52.870Z,17.95
2024-03-24T10:44:11.137Z,20.10
2024-03-24T10:49:22.019Z,16.25
2024-03-24T10:54:30.272Z,17.52
2024-03-24T10:59:45.924Z,18.10
2024-03-24T11:04:51.963Z,16.13
2024-03-24T11:09:59.642Z,14.85
2024-03-24T11:15:07.800Z,17.20
2024-03-24T11:20:27.148Z,15.68
2024-03-24T11:31:03.339Z,18.10
2024-03-24T11:36:23.520Z,16.77
2024-03-24T11:41:28.455Z,19.42
2024-03-24T11:46:42.825Z,18.55
2024-03-24T11:51:52.605Z,18.63
2024-03-24T11:57:01.186Z,19.77
2024-03-24T12:02:08.274Z,19.08
2024-03-24T12:07:14.895Z,21.73
2024-03-24T12:12:20.229Z,21.13
2024-03-24T12:17:33.402Z,18.27
2024-03-24T12:22:41.831Z,20.05
2024-03-24T12:27:51.940Z,21.25
2024-03-24T12:32:59.656Z,19.58
2024-03-24T12:47:41.323Z,15.60
2024-03-24T12:52:47.080Z,18.55
2024-03-24T12:58:03.640Z,17.77
2024-03-24T13:03:15.042Z,17.90
2024-03-24T13:08:23.115Z,17.83
2024-03-24T13:13:38.951Z,16.40
2024-03-24T13:18:51.134Z,15.35
2024-03-24T13:23:59.790Z,16.80
2024-03-24T13:29:05.511Z,13.57
2024-03-24T13:34:22.274Z,13.50
2024-03-24T13:39:46.427Z,17.95
2024-03-24T13:45:04.910Z,13.95
2024-03-24T13:50:14.259Z,14.73
2024-03-24T13:55:20.708Z,13.02
2024-03-24T14:00:31.296Z,13.18
2024-03-24T14:05:39.450Z,11.13
2024-03-24T14:10:59.901Z,13.52
2024-03-24T14:21:40.551Z,12.25
2024-03-24T14:26:50.860Z,11.43
2024-03-24T14:31:57.609Z,12.10
2024-03-24T14:37:22.895Z,12.15
2024-03-24T14:42:39.190Z,11.30
2024-03-24T14:53:19.306Z,10.38
2024-03-24T14:58:25.914Z,10.65
2024-03-24T15:03:34.042Z,11.10
2024-03-24T15:08:51.129Z,11.02
2024-03-24T15:14:00.755Z,10.93
2024-03-24T15:19:07.778Z,10.90
2024-03-24T15:24:20.555Z,10.90
2024-03-24T15:29:25.692Z,11.10
2024-03-24T15:34:37.324Z,11.63
2024-03-24T15:39:47.894Z,11.15
2024-03-24T15:44:52.770Z,12.52
2024-03-24T15:49:58.020Z,10.68
2024-03-24T15:55:05.491Z,11.00
2024-03-24T16:00:20.538Z,13.00
2024-03-24T16:05:27.461Z,12.38
2024-03-24T16:10:59.858Z,12.52
2024-03-24T16:16:17.299Z,12.45
2024-03-24T16:21:44.051Z,12.35
2024-03-24T16:26:50.748Z,13.75
2024-03-24T16:32:03.094Z,13.75
2024-03-24T16:37:12.064Z,13.93
2024-03-24T16:42:24.754Z,14.15
2024-03-24T16:52:53.006Z,14.43
2024-03-24T16:58:05.203Z,13.40
2024-03-24T17:03:16.363Z,16.10
2024-03-24T17:08:24.248Z,14.93
2024-03-24T17:13:34.378Z,12.95
2024-03-24T17:18:39.528Z,13.55
2024-03-24T17:23:54.831Z,17.50
2024-03-24T17:29:07.520Z,13.35
2024-03-24T17:34:12.147Z,13.18
2024-03-24T17:39:32.587Z,15.30
2024-03-24T17:44:40.084Z,15.07
2024-03-24T17:49:47.931Z,15.13
2024-03-24T17:54:53.031Z,13.82
2024-03-24T18:00:07.662Z,14.93
2024-03-24T18:05:18.182Z,16.08
2024-03-24T18:10:29.913Z,17.55
2024-03-24T18:15:39.522Z,16.60
2024-03-24T18:20:57.383Z,14.63
2024-03-24T18:26:04.387Z,19.20
2024-03-24T18:31:19.000Z,16.25
2024-03-24T18:36:28.883Z,17.70
2024-03-24T18:47:00.409Z,16.65
2024-03-24T18:52:08.098Z,17.50
2024-03-24T18:57:18.748Z,18.92
2024-03-24T19:02:32.959Z,20.52
2024-03-24T19:07:37.842Z,19.27
2024-03-24T19:12:43.805Z,24.42
2024-03-24T19:23:18.080Z,22.50
2024-03-24T19:28:24.721Z,19.63
2024-03-24T19:33:33.141Z,20.90
2024-03-24T19:38:43.486Z,19.50
2024-03-24T19:43:54.278Z,18.48
2024-03-24T19:49:01.319Z,19.08
2024-03-24T19:54:07.223Z,18.63
2024-03-24T19:59:20.968Z,19.08
2024-03-24T20:04:33.273Z,18.73
2024-03-24T20:09:42.965Z,21.75
2024-03-24T20:14:47.681Z,20.83
2024-03-24T20:19:54.718Z,19.25
2024-03-24T20:25:05.738Z,21.48
2024-03-24T20:30:11.987Z,24.00
2024-03-24T20:35:25.026Z,21.05
2024-03-24T20:40:30.038Z,22.77
2024-03-24T20:45:43.650Z,25.08
2024-03-24T20:50:51.610Z,24.02
2024-03-24T21:01:17.429Z,27.67
2024-03-24T21:06:24.331Z,30.40
2024-03-24T21:11:36.248Z,27.40
2024-03-24T21:16:47.821Z,26.00
2024-03-24T21:27:12.397Z,30.65
2024-03-24T21:32:17.755Z,35.17
2024-03-24T21:37:46.436Z,33.72
2024-03-24T21:42:56.368Z,38.10
2024-03-24T21:48:02.623Z,36.05
2024-03-24T21:53:10.877Z,36.35
2024-03-24T21:58:16.244Z,35.35
2024-03-24T22:03:25.831Z,35.13
2024-03-24T22:08:39.670Z,37.22
2024-03-24T22:18:59.735Z,29.05
2024-03-24T22:24:09.102Z,33.25
2024-03-24T22:29:19.361Z,30.27
2024-03-24T22:34:25.474Z,37.78
2024-03-24T22:44:50.286Z,39.03
2024-03-24T22:49:55.759Z,37.05
2024-03-24T22:55:04.768Z,35.70
2024-03-24T23:00:25.305Z,32.10
2024-03-24T23:05:37.618Z,37.42
2024-03-24T23:10:44.644Z,39.00
2024-03-24T23:15:52.710Z,38.67
2024-03-24T23:20:58.851Z,37.03
2024-03-24T23:26:06.854Z,35.97
2024-03-24T23:31:12.796Z,32.65
2024-03-24T23:36:17.930Z,28.85
2024-03-24T23:41:27.709Z,29.08
2024-03-24T23:46:40.858Z,17.17
2024-03-24T23:51:51.400Z,12.73
2024-03-24T23:57:07.349Z,9.40
